Ocean Majesty — CQSC — position and weather

sailwx.info

Track history (hours):
 
Tides and Currents Weather Stations Pressure Air Temp Water Temp Dewpoint Dewpoint Depression Visibility Wind Speed Wind Dir Waves Ship Positions

Ocean Majesty

Last reported at 2020-Feb-28 20:27 UTC. Time now 2020-Aug-07 04:39 UTC.
Position N 37°56' E 023°37'.
Warning: this ship's position is months out of date.

Length 136 m; draft 6.1 m.

Type: Passenger vessel. MMSI: 255717000.

Date/timePositionNaut miles runAvg speedWind from/ knotsBaromVisibWave heightAir tempDewpointWater temp
2020-Feb-28 20:27N 37°56' E 023°37'0 0.0
2020-Feb-28 20:00N 37°56' E 023°37'0 0.0
2020-Feb-28 19:30N 37°56' E 023°37'0 0.0
2020-Feb-28 19:00N 37°56' E 023°37'0 0.0
2020-Feb-28 17:30N 37°56' E 023°37'0 0.0
2020-Feb-28 17:00N 37°56' E 023°37'0 0.0
2020-Feb-28 13:30N 37°56' E 023°37'0 0.0
2020-Feb-28 13:00N 37°56' E 023°37'0 0.0
2020-Feb-28 12:00N 37°56' E 023°37'0 0.0
2020-Feb-28 09:00N 37°56' E 023°37'0 0.0
2020-Feb-28 08:00N 37°56' E 023°37'0 0.0
2020-Feb-28 06:57N 37°56' E 023°37'0 0.0
2020-Feb-28 04:30N 37°56' E 023°37'0 0.0
2020-Feb-28 03:30N 37°56' E 023°37'0 0.0
2020-Feb-28 03:00N 37°56' E 023°37'0 0.0
2020-Feb-28 02:30N 37°56' E 023°37'0 0.0
2020-Feb-28 02:00N 37°56' E 023°37'0 0.0
2020-Feb-27 22:30N 37°56' E 023°37'0 0.0
2020-Feb-27 21:30N 37°56' E 023°37'0 0.0
2020-Feb-27 19:00N 37°56' E 023°37'0 0.0
2020-Feb-27 16:30N 37°56' E 023°37'0 0.0
2020-Feb-27 13:30N 37°56' E 023°37'0 0.0
2020-Feb-27 13:00N 37°56' E 023°37'0 0.0
2020-Feb-27 12:30N 37°56' E 023°37'0 0.0
2020-Feb-27 11:00N 37°56' E 023°37'0 0.0
2020-Feb-27 10:30N 37°56' E 023°37'0 0.0
2020-Feb-27 10:00N 37°56' E 023°37'0 0.0
2020-Feb-27 09:30N 37°56' E 023°37'0 0.0
2020-Feb-27 07:30N 37°56' E 023°37'4 2.7
2020-Feb-27 06:00N 37°52' E 023°38'1616.2
2020-Feb-27 05:00N 37°37' E 023°45'1916.9
2020-Feb-27 03:52N 37°18' E 023°41'44215.8
2020-Feb-25 23:52N 35°58' E 014°40'4 8.9
2020-Feb-25 23:28N 35°57' E 014°35'0 0.2
2020-Feb-25 22:30N 35°57' E 014°35'0 0.2
2020-Feb-25 21:07N 35°56' E 014°35'0 0.1
2020-Feb-25 20:30N 35°56' E 014°35'16 3.1
2020-Feb-25 15:15N 35°51' E 014°55'24 6.2
2020-Feb-25 11:23N 36°02' E 014°28'616.2
2020-Feb-25 11:00N 36°05' E 014°21'2516.3
2020-Feb-25 09:26N 36°16' E 013°53'1715.4
2020-Feb-25 08:21N 36°24' E 013°34'1814.5
2020-Feb-25 07:06N 36°32' E 013°14'315.1
2020-Feb-25 06:53N 36°33' E 013°11'40514.8
2020-Feb-24 03:32N 37°24' E 004°48'1615.1
2020-Feb-24 02:30N 37°22' E 004°28'3014.9
2020-Feb-24 00:30N 37°20' E 003°51'3515.5
2020-Feb-23 22:14N 37°18' E 003°07'5815.3
2020-Feb-23 18:26N 36°57' E 001°58'23915.5
2020-Feb-23 03:00N 36°15' W 002°55'9316.5
2020-Feb-22 21:23N 36°03' W 004°48'69016.2
2020-Feb-21 02:41N 28°56' W 015°32'3315.2
2020-Feb-21 00:30N 28°33' W 015°60'14 2.8
2020-Feb-20 19:28N 28°28' W 016°15'0 0.0
2020-Feb-20 18:58N 28°28' W 016°15'0 0.0
2020-Feb-20 17:28N 28°28' W 016°15'0 0.0
2020-Feb-20 16:28N 28°28' W 016°15'0 0.0
2020-Feb-20 15:58N 28°28' W 016°15'0 0.0
2020-Feb-20 15:28N 28°28' W 016°15'0 0.0
2020-Feb-20 14:58N 28°28' W 016°15'0 0.0
2020-Feb-20 14:28N 28°28' W 016°15'0 0.0
2020-Feb-20 13:28N 28°28' W 016°15'0 0.0
2020-Feb-20 11:28N 28°28' W 016°15'0 0.0
2020-Feb-20 10:58N 28°28' W 016°15'0 0.0
2020-Feb-20 10:28N 28°28' W 016°15'0 0.0
2020-Feb-20 05:28N 28°28' W 016°15'0 0.0
2020-Feb-20 03:28N 28°28' W 016°15'0 0.0
2020-Feb-20 02:28N 28°28' W 016°15'0 0.0
2020-Feb-19 22:58N 28°28' W 016°15'0 0.0
2020-Feb-19 21:28N 28°28' W 016°15'0 0.0
2020-Feb-19 19:28N 28°28' W 016°15'0 0.0
2020-Feb-19 18:58N 28°28' W 016°15'0 0.0
2020-Feb-19 18:28N 28°28' W 016°15'0 0.0
2020-Feb-19 16:58N 28°28' W 016°15'0 0.0
2020-Feb-19 15:58N 28°28' W 016°15'0 0.0
2020-Feb-19 14:58N 28°28' W 016°15'1 1.2
2020-Feb-19 14:00N 28°28' W 016°13'3 5.8
2020-Feb-19 13:30N 28°25' W 016°14'59 4.3
2020-Feb-18 23:57N 27°49' W 015°22'613.5
2020-Feb-18 23:30N 27°55' W 015°20'713.1
2020-Feb-18 23:00N 28°01' W 015°19'9 3.6
2020-Feb-18 20:28N 28°08' W 015°25'  
Track history (hours):
 
Tides and Currents Weather Stations Pressure Air Temp Water Temp Dewpoint Dewpoint Depression Visibility Wind Speed Wind Dir Waves Ship Positions

Ocean Majesty

Last reported at 2020-Feb-28 20:27 UTC. Time now 2020-Aug-07 04:39 UTC.
Position N 37°56' E 023°37'.
Warning: this ship's position is months out of date.

Length 136 m; draft 6.1 m.

Type: Passenger vessel. MMSI: 255717000.

Date/timePositionNaut miles runAvg speedWind from/ knotsBaromVisibWave heightAir tempDewpointWater temp
2020-Feb-28 20:27N 37°56' E 023°37'0 0.0
2020-Feb-28 20:00N 37°56' E 023°37'0 0.0
2020-Feb-28 19:30N 37°56' E 023°37'0 0.0
2020-Feb-28 19:00N 37°56' E 023°37'0 0.0
2020-Feb-28 17:30N 37°56' E 023°37'0 0.0
2020-Feb-28 17:00N 37°56' E 023°37'0 0.0
2020-Feb-28 13:30N 37°56' E 023°37'0 0.0
2020-Feb-28 13:00N 37°56' E 023°37'0 0.0
2020-Feb-28 12:00N 37°56' E 023°37'0 0.0
2020-Feb-28 09:00N 37°56' E 023°37'0 0.0
2020-Feb-28 08:00N 37°56' E 023°37'0 0.0
2020-Feb-28 06:57N 37°56' E 023°37'0 0.0
2020-Feb-28 04:30N 37°56' E 023°37'0 0.0
2020-Feb-28 03:30N 37°56' E 023°37'0 0.0
2020-Feb-28 03:00N 37°56' E 023°37'0 0.0
2020-Feb-28 02:30N 37°56' E 023°37'0 0.0
2020-Feb-28 02:00N 37°56' E 023°37'0 0.0
2020-Feb-27 22:30N 37°56' E 023°37'0 0.0
2020-Feb-27 21:30N 37°56' E 023°37'0 0.0
2020-Feb-27 19:00N 37°56' E 023°37'0 0.0
2020-Feb-27 16:30N 37°56' E 023°37'0 0.0
2020-Feb-27 13:30N 37°56' E 023°37'0 0.0
2020-Feb-27 13:00N 37°56' E 023°37'0 0.0
2020-Feb-27 12:30N 37°56' E 023°37'0 0.0
2020-Feb-27 11:00N 37°56' E 023°37'0 0.0
2020-Feb-27 10:30N 37°56' E 023°37'0 0.0
2020-Feb-27 10:00N 37°56' E 023°37'0 0.0
2020-Feb-27 09:30N 37°56' E 023°37'0 0.0
2020-Feb-27 07:30N 37°56' E 023°37'4 2.7
2020-Feb-27 06:00N 37°52' E 023°38'1616.2
2020-Feb-27 05:00N 37°37' E 023°45'1916.9
2020-Feb-27 03:52N 37°18' E 023°41'44215.8
2020-Feb-25 23:52N 35°58' E 014°40'4 8.9
2020-Feb-25 23:28N 35°57' E 014°35'0 0.2
2020-Feb-25 22:30N 35°57' E 014°35'0 0.2
2020-Feb-25 21:07N 35°56' E 014°35'0 0.1
2020-Feb-25 20:30N 35°56' E 014°35'16 3.1
2020-Feb-25 15:15N 35°51' E 014°55'24 6.2
2020-Feb-25 11:23N 36°02' E 014°28'616.2
2020-Feb-25 11:00N 36°05' E 014°21'2516.3
2020-Feb-25 09:26N 36°16' E 013°53'1715.4
2020-Feb-25 08:21N 36°24' E 013°34'1814.5
2020-Feb-25 07:06N 36°32' E 013°14'315.1
2020-Feb-25 06:53N 36°33' E 013°11'40514.8
2020-Feb-24 03:32N 37°24' E 004°48'1615.1
2020-Feb-24 02:30N 37°22' E 004°28'3014.9
2020-Feb-24 00:30N 37°20' E 003°51'3515.5
2020-Feb-23 22:14N 37°18' E 003°07'5815.3
2020-Feb-23 18:26N 36°57' E 001°58'23915.5
2020-Feb-23 03:00N 36°15' W 002°55'9316.5
2020-Feb-22 21:23N 36°03' W 004°48'69016.2
2020-Feb-21 02:41N 28°56' W 015°32'3315.2
2020-Feb-21 00:30N 28°33' W 015°60'14 2.8
2020-Feb-20 19:28N 28°28' W 016°15'0 0.0
2020-Feb-20 18:58N 28°28' W 016°15'0 0.0
2020-Feb-20 17:28N 28°28' W 016°15'0 0.0
2020-Feb-20 16:28N 28°28' W 016°15'0 0.0
2020-Feb-20 15:58N 28°28' W 016°15'0 0.0
2020-Feb-20 15:28N 28°28' W 016°15'0 0.0
2020-Feb-20 14:58N 28°28' W 016°15'0 0.0
2020-Feb-20 14:28N 28°28' W 016°15'0 0.0
2020-Feb-20 13:28N 28°28' W 016°15'0 0.0
2020-Feb-20 11:28N 28°28' W 016°15'0 0.0
2020-Feb-20 10:58N 28°28' W 016°15'0 0.0
2020-Feb-20 10:28N 28°28' W 016°15'0 0.0
2020-Feb-20 05:28N 28°28' W 016°15'0 0.0
2020-Feb-20 03:28N 28°28' W 016°15'0 0.0
2020-Feb-20 02:28N 28°28' W 016°15'0 0.0
2020-Feb-19 22:58N 28°28' W 016°15'0 0.0
2020-Feb-19 21:28N 28°28' W 016°15'0 0.0
2020-Feb-19 19:28N 28°28' W 016°15'0 0.0
2020-Feb-19 18:58N 28°28' W 016°15'0 0.0
2020-Feb-19 18:28N 28°28' W 016°15'0 0.0
2020-Feb-19 16:58N 28°28' W 016°15'0 0.0
2020-Feb-19 15:58N 28°28' W 016°15'0 0.0
2020-Feb-19 14:58N 28°28' W 016°15'1 1.2
2020-Feb-19 14:00N 28°28' W 016°13'3 5.8
2020-Feb-19 13:30N 28°25' W 016°14'59 4.3
2020-Feb-18 23:57N 27°49' W 015°22'613.5
2020-Feb-18 23:30N 27°55' W 015°20'713.1
2020-Feb-18 23:00N 28°01' W 015°19'9 3.6
2020-Feb-18 20:28N 28°08' W 015°25'  

Dump ship's entire track history